Time;durP1;ratioP1;P1;durP2;ratioP2;P2;SDS_P1;SDS_P2;PMS_P1;PMS_P2;Temp;Humidity;BMP_temperature;BMP_pressure;BME280_temperature;BME280_humidity;BME280_pressure;Samples;Min_cycle;Max_cycle;Signal;HPM_P1;HPM_P2
2021/10/20 00:01:45;;;;;;;7.55;4.60;;;;;;;;;;5067093;28;20020;-58
2021/10/20 00:04:10;;;;;;;8.40;4.95;;;;;;;;;;5069562;28;20067;-58
2021/10/20 00:06:36;;;;;;;8.98;4.63;;;;;;;;;;5063376;28;20032;-58
2021/10/20 00:09:01;;;;;;;8.20;4.07;;;;;;;;;;5068726;28;20020;-58
2021/10/20 00:11:27;;;;;;;8.00;5.07;;;;;;;;;;5064977;28;20044;-58
2021/10/20 00:13:53;;;;;;;7.32;4.03;;;;;;;;;;5069020;28;20031;-58
2021/10/20 00:16:19;;;;;;;7.95;4.10;;;;;;;;;;5067052;28;20527;-58
2021/10/20 00:18:48;;;;;;;8.18;4.10;;;;;;;;;;5066843;28;20040;-58
2021/10/20 00:21:16;;;;;;;5.77;2.97;;;;;;;;;;5071684;28;20028;-58
2021/10/20 00:23:42;;;;;;;4.90;2.50;;;;;;;;;;5069097;28;20043;-57
2021/10/20 00:26:07;;;;;;;5.22;3.05;;;;;;;;;;5072642;28;20020;-57
2021/10/20 00:28:32;;;;;;;5.05;3.08;;;;;;;;;;5070881;28;20108;-57
2021/10/20 00:30:58;;;;;;;6.50;2.80;;;;;;;;;;5070657;28;20436;-57
2021/10/20 00:33:23;;;;;;;4.13;2.70;;;;;;;;;;5069366;28;20491;-60
2021/10/20 00:35:49;;;;;;;3.97;2.70;;;;;;;;;;5070509;28;20020;-58
2021/10/20 00:38:14;;;;;;;5.15;2.90;;;;;;;;;;5069082;28;20032;-59
2021/10/20 00:40:39;;;;;;;5.88;2.58;;;;;;;;;;5069692;28;20016;-58
2021/10/20 00:43:05;;;;;;;5.35;2.78;;;;;;;;;;5073120;28;20547;-58
2021/10/20 00:45:31;;;;;;;5.32;2.83;;;;;;;;;;5070147;28;20058;-58
2021/10/20 00:47:56;;;;;;;4.32;2.80;;;;;;;;;;5070112;28;20028;-58
2021/10/20 00:50:22;;;;;;;6.38;3.22;;;;;;;;;;5067631;28;20041;-58
2021/10/20 00:52:48;;;;;;;6.65;4.00;;;;;;;;;;5069830;28;20083;-58
2021/10/20 00:55:14;;;;;;;13.07;6.53;;;;;;;;;;5068886;28;20029;-58
2021/10/20 00:57:41;;;;;;;11.30;6.10;;;;;;;;;;5068803;28;20035;-58
2021/10/20 01:00:09;;;;;;;10.20;5.72;;;;;;;;;;5071366;28;20055;-58
2021/10/20 01:02:36;;;;;;;9.52;6.20;;;;;;;;;;5071540;28;20455;-57
2021/10/20 01:05:03;;;;;;;10.70;6.10;;;;;;;;;;5070811;28;20051;-58
2021/10/20 01:07:29;;;;;;;10.93;5.47;;;;;;;;;;5066439;28;20071;-57
2021/10/20 01:09:54;;;;;;;11.98;5.78;;;;;;;;;;5069710;28;20601;-57
2021/10/20 01:12:20;;;;;;;10.77;5.85;;;;;;;;;;5069879;28;20427;-58
2021/10/20 01:14:46;;;;;;;9.32;5.80;;;;;;;;;;5065523;28;20025;-57
2021/10/20 01:17:12;;;;;;;11.52;6.07;;;;;;;;;;5069885;28;20455;-57
2021/10/20 01:19:37;;;;;;;11.10;6.43;;;;;;;;;;5070530;28;20085;-58
2021/10/20 01:22:04;;;;;;;8.98;5.63;;;;;;;;;;5069280;28;20055;-57
2021/10/20 01:24:29;;;;;;;9.18;6.07;;;;;;;;;;5072333;28;20032;-57
2021/10/20 01:26:56;;;;;;;11.00;6.00;;;;;;;;;;5072539;28;20088;-57
2021/10/20 01:29:22;;;;;;;9.32;5.82;;;;;;;;;;5069544;28;20036;-57
2021/10/20 01:31:54;;;;;;;9.20;6.35;;;;;;;;;;5068636;28;20028;-57
2021/10/20 01:34:20;;;;;;;12.05;6.80;;;;;;;;;;5068280;28;20372;-57
2021/10/20 01:36:48;;;;;;;9.70;5.82;;;;;;;;;;5069372;28;20222;-57
2021/10/20 01:39:14;;;;;;;9.15;5.70;;;;;;;;;;5068723;28;20095;-58
2021/10/20 01:41:41;;;;;;;9.70;6.03;;;;;;;;;;5068228;28;20032;-57
2021/10/20 01:44:06;;;;;;;10.10;6.38;;;;;;;;;;5070927;28;20078;-57
2021/10/20 01:46:32;;;;;;;10.85;6.55;;;;;;;;;;5067138;28;20024;-58
2021/10/20 01:48:58;;;;;;;8.65;5.82;;;;;;;;;;5066264;28;20364;-58
2021/10/20 01:51:23;;;;;;;10.18;5.93;;;;;;;;;;5069184;28;20128;-58
2021/10/20 01:53:49;;;;;;;11.05;5.78;;;;;;;;;;5070444;28;20020;-57
2021/10/20 01:56:15;;;;;;;9.25;5.47;;;;;;;;;;5069395;28;20054;-57
2021/10/20 01:58:42;;;;;;;7.40;4.60;;;;;;;;;;5066526;28;20032;-57
2021/10/20 02:01:08;;;;;;;7.60;4.00;;;;;;;;;;5066532;28;20063;-58
2021/10/20 02:03:37;;;;;;;7.65;3.40;;;;;;;;;;5071151;28;20059;-57
2021/10/20 02:06:05;;;;;;;4.57;2.95;;;;;;;;;;5065769;28;20024;-58
2021/10/20 02:08:31;;;;;;;5.70;2.63;;;;;;;;;;5068386;28;20077;-57
2021/10/20 02:10:57;;;;;;;5.65;2.83;;;;;;;;;;5071148;28;20089;-57
2021/10/20 02:13:22;;;;;;;3.42;2.63;;;;;;;;;;5068763;28;20628;-59
2021/10/20 02:15:48;;;;;;;4.20;2.63;;;;;;;;;;5069273;28;20040;-58
2021/10/20 02:18:13;;;;;;;5.20;2.65;;;;;;;;;;5067579;28;20020;-57
2021/10/20 02:20:39;;;;;;;3.85;2.40;;;;;;;;;;5067867;28;20031;-57
2021/10/20 02:23:04;;;;;;;7.00;3.22;;;;;;;;;;5070551;28;20029;-57
2021/10/20 02:25:30;;;;;;;6.80;2.67;;;;;;;;;;5070157;28;20458;-58
2021/10/20 02:27:55;;;;;;;16.45;3.20;;;;;;;;;;5070007;28;20024;-58
2021/10/20 02:30:21;;;;;;;9.52;3.17;;;;;;;;;;5068001;28;20036;-57
2021/10/20 02:32:47;;;;;;;6.70;2.80;;;;;;;;;;5070409;28;20028;-58
2021/10/20 02:35:12;;;;;;;6.10;2.90;;;;;;;;;;5066310;28;20045;-58
2021/10/20 02:37:38;;;;;;;5.60;2.85;;;;;;;;;;5066278;28;20471;-58
2021/10/20 02:40:06;;;;;;;4.78;2.70;;;;;;;;;;5067366;28;20170;-58
2021/10/20 02:42:32;;;;;;;6.18;2.70;;;;;;;;;;5066671;28;20060;-57
2021/10/20 02:44:58;;;;;;;6.75;3.15;;;;;;;;;;5064778;28;20051;-57
2021/10/20 02:47:23;;;;;;;5.60;3.10;;;;;;;;;;5068894;28;20481;-59
2021/10/20 02:49:49;;;;;;;8.05;4.75;;;;;;;;;;5066475;28;20070;-58
2021/10/20 02:52:14;;;;;;;5.85;3.70;;;;;;;;;;5066662;28;20165;-58
2021/10/20 02:54:40;;;;;;;6.03;3.50;;;;;;;;;;5069264;28;20028;-58
2021/10/20 02:57:06;;;;;;;6.15;3.50;;;;;;;;;;5068801;28;20033;-58
2021/10/20 02:59:31;;;;;;;7.18;4.10;;;;;;;;;;5065747;28;20024;-58
2021/10/20 03:01:57;;;;;;;8.00;4.90;;;;;;;;;;5071896;28;20031;-58
2021/10/20 03:04:22;;;;;;;7.15;4.10;;;;;;;;;;5068546;28;20386;-58
2021/10/20 03:06:47;;;;;;;7.85;4.55;;;;;;;;;;5065256;28;20111;-58
2021/10/20 03:09:13;;;;;;;6.28;3.65;;;;;;;;;;5067000;28;20402;-58
2021/10/20 03:11:38;;;;;;;5.50;3.88;;;;;;;;;;5068822;28;20031;-58
2021/10/20 03:14:04;;;;;;;5.65;3.70;;;;;;;;;;5069184;28;20082;-58
2021/10/20 03:16:29;;;;;;;7.65;3.40;;;;;;;;;;5069345;28;20039;-58
2021/10/20 03:18:55;;;;;;;7.05;3.47;;;;;;;;;;5071171;28;20112;-58
2021/10/20 03:21:21;;;;;;;6.72;3.58;;;;;;;;;;5066622;28;20028;-58
2021/10/20 03:23:46;;;;;;;5.85;3.78;;;;;;;;;;5070741;28;20032;-58
2021/10/20 03:26:12;;;;;;;5.68;3.15;;;;;;;;;;5064728;28;20028;-58
2021/10/20 03:28:38;;;;;;;5.70;3.40;;;;;;;;;;5069029;28;20128;-58
2021/10/20 03:31:03;;;;;;;7.68;3.88;;;;;;;;;;5066463;28;20144;-57
2021/10/20 03:33:29;;;;;;;13.55;5.60;;;;;;;;;;5064552;28;20044;-57
2021/10/20 03:35:54;;;;;;;12.20;5.35;;;;;;;;;;5066566;28;20028;-57
2021/10/20 03:38:20;;;;;;;11.65;5.68;;;;;;;;;;5065752;28;20181;-58
2021/10/20 03:40:45;;;;;;;12.43;5.82;;;;;;;;;;5069531;28;20042;-58
2021/10/20 03:43:11;;;;;;;11.48;5.53;;;;;;;;;;5067035;28;20036;-59
2021/10/20 03:45:36;;;;;;;10.10;5.60;;;;;;;;;;5065414;28;20043;-57
2021/10/20 03:48:01;;;;;;;9.80;5.40;;;;;;;;;;5067877;28;20036;-57
2021/10/20 03:50:27;;;;;;;11.27;5.68;;;;;;;;;;5065257;28;20302;-58
2021/10/20 03:52:52;;;;;;;12.20;5.07;;;;;;;;;;5047726;28;20397;-58
2021/10/20 03:55:18;;;;;;;9.32;4.95;;;;;;;;;;5067081;28;20490;-57
2021/10/20 03:57:44;;;;;;;11.10;5.22;;;;;;;;;;5069687;28;20082;-58
2021/10/20 04:00:16;;;;;;;8.52;5.68;;;;;;;;;;5073162;28;20402;-58
2021/10/20 04:02:44;;;;;;;18.92;8.07;;;;;;;;;;5076813;28;20032;-57
2021/10/20 04:05:12;;;;;;;41.40;13.80;;;;;;;;;;5073294;28;20043;-57
2021/10/20 04:07:39;;;;;;;50.05;17.17;;;;;;;;;;5068252;28;20108;-58
2021/10/20 04:10:06;;;;;;;39.53;14.13;;;;;;;;;;5071735;28;20026;-58
2021/10/20 04:12:32;;;;;;;14.15;6.57;;;;;;;;;;5073860;28;20037;-57
2021/10/20 04:14:57;;;;;;;24.58;9.13;;;;;;;;;;5070418;28;20429;-59
2021/10/20 04:17:23;;;;;;;21.95;9.68;;;;;;;;;;5070739;28;20048;-59
2021/10/20 04:19:48;;;;;;;23.65;9.73;;;;;;;;;;5070354;28;20028;-58
2021/10/20 04:22:13;;;;;;;14.55;7.47;;;;;;;;;;5072952;28;20024;-58
2021/10/20 04:24:39;;;;;;;13.13;5.82;;;;;;;;;;5070609;28;20024;-58
2021/10/20 04:27:04;;;;;;;13.25;6.65;;;;;;;;;;5070893;28;20082;-58
2021/10/20 04:29:30;;;;;;;14.85;7.25;;;;;;;;;;5068430;28;20040;-58
2021/10/20 04:31:55;;;;;;;12.85;7.43;;;;;;;;;;5073750;28;20039;-58
2021/10/20 04:34:20;;;;;;;12.40;6.72;;;;;;;;;;5084666;28;20399;-58
2021/10/20 04:36:46;;;;;;;13.60;7.55;;;;;;;;;;5068760;28;20510;-57
2021/10/20 04:39:12;;;;;;;60.53;16.98;;;;;;;;;;5071861;28;20024;-58
2021/10/20 04:41:37;;;;;;;96.07;26.52;;;;;;;;;;5069331;28;20027;-57
2021/10/20 04:44:03;;;;;;;78.72;22.00;;;;;;;;;;5071703;28;20421;-57
2021/10/20 04:46:28;;;;;;;97.88;25.50;;;;;;;;;;5069748;28;20039;-58
2021/10/20 04:48:54;;;;;;;77.03;23.92;;;;;;;;;;5069639;28;20099;-58
2021/10/20 04:51:20;;;;;;;79.47;25.17;;;;;;;;;;5068405;28;20036;-58
2021/10/20 04:53:45;;;;;;;75.95;25.67;;;;;;;;;;5070021;28;20035;-58
2021/10/20 04:56:10;;;;;;;76.35;26.35;;;;;;;;;;5070756;28;20025;-58
2021/10/20 04:58:36;;;;;;;59.33;21.48;;;;;;;;;;5070078;28;20029;-58
2021/10/20 05:01:01;;;;;;;56.30;20.40;;;;;;;;;;5073019;28;20023;-58
2021/10/20 05:03:27;;;;;;;45.08;17.10;;;;;;;;;;5067550;28;20063;-56
2021/10/20 05:05:52;;;;;;;47.95;17.77;;;;;;;;;;5069629;28;20040;-56
2021/10/20 05:08:18;;;;;;;39.30;16.20;;;;;;;;;;5068427;28;20028;-57
2021/10/20 05:10:44;;;;;;;46.10;18.40;;;;;;;;;;5074955;28;20024;-58
2021/10/20 05:13:09;;;;;;;43.90;18.00;;;;;;;;;;5068748;28;20031;-59
2021/10/20 05:15:35;;;;;;;48.63;18.25;;;;;;;;;;5068460;28;20259;-59
2021/10/20 05:18:00;;;;;;;43.55;17.75;;;;;;;;;;5072292;28;20390;-59
2021/10/20 05:20:26;;;;;;;39.75;16.45;;;;;;;;;;5074297;28;20028;-59
2021/10/20 05:22:51;;;;;;;37.97;15.30;;;;;;;;;;5071775;28;20493;-59
2021/10/20 05:25:17;;;;;;;40.47;15.18;;;;;;;;;;5069089;28;20086;-59
2021/10/20 05:27:44;;;;;;;30.95;13.30;;;;;;;;;;5070406;28;20017;-59
2021/10/20 05:30:11;;;;;;;32.88;13.68;;;;;;;;;;5070269;28;20441;-59
2021/10/20 05:32:36;;;;;;;41.40;16.75;;;;;;;;;;5069444;28;20028;-59
2021/10/20 05:35:03;;;;;;;33.58;14.80;;;;;;;;;;5066034;28;20395;-58
2021/10/20 05:37:28;;;;;;;23.50;10.77;;;;;;;;;;5068318;28;20083;-58
2021/10/20 05:39:54;;;;;;;20.65;10.30;;;;;;;;;;5071441;28;20095;-58
2021/10/20 05:42:20;;;;;;;24.40;11.05;;;;;;;;;;5071648;28;20029;-58
2021/10/20 05:44:46;;;;;;;15.88;8.73;;;;;;;;;;5072060;28;20032;-58
2021/10/20 05:47:12;;;;;;;16.33;7.90;;;;;;;;;;5069838;28;20474;-58
2021/10/20 05:49:37;;;;;;;17.23;7.63;;;;;;;;;;5067690;28;20031;-58
2021/10/20 05:52:04;;;;;;;13.75;6.80;;;;;;;;;;5068158;28;20362;-58
2021/10/20 05:54:30;;;;;;;9.30;5.40;;;;;;;;;;5068378;28;20427;-58
2021/10/20 05:56:55;;;;;;;8.85;5.13;;;;;;;;;;5069225;28;20083;-58
2021/10/20 05:59:22;;;;;;;9.50;5.20;;;;;;;;;;5068312;28;20024;-58
2021/10/20 06:01:49;;;;;;;10.00;4.93;;;;;;;;;;5070152;28;20058;-58
2021/10/20 06:04:15;;;;;;;7.93;4.40;;;;;;;;;;5070336;28;20032;-58
2021/10/20 06:06:41;;;;;;;7.63;4.22;;;;;;;;;;5068597;28;20437;-59
2021/10/20 06:09:06;;;;;;;8.15;4.93;;;;;;;;;;5070005;28;20028;-59
2021/10/20 06:11:32;;;;;;;8.60;5.50;;;;;;;;;;5070353;28;20028;-59
2021/10/20 06:13:58;;;;;;;9.70;5.38;;;;;;;;;;5068341;28;20214;-59
2021/10/20 06:16:23;;;;;;;11.38;5.85;;;;;;;;;;5067876;28;21027;-60
2021/10/20 06:18:49;;;;;;;14.57;7.47;;;;;;;;;;5066141;28;20044;-59
2021/10/20 06:21:14;;;;;;;11.15;6.35;;;;;;;;;;5067785;28;20020;-59
2021/10/20 06:23:40;;;;;;;10.15;5.97;;;;;;;;;;5070870;28;20020;-59
2021/10/20 06:26:05;;;;;;;11.73;6.88;;;;;;;;;;5069691;28;20024;-59
2021/10/20 06:28:31;;;;;;;10.40;6.07;;;;;;;;;;5069300;28;20040;-59
2021/10/20 06:30:56;;;;;;;9.05;4.88;;;;;;;;;;5069767;28;20031;-58
2021/10/20 06:33:22;;;;;;;8.77;4.63;;;;;;;;;;5069269;28;20028;-58
2021/10/20 06:35:47;;;;;;;8.00;4.63;;;;;;;;;;5068237;28;20108;-58
2021/10/20 06:38:13;;;;;;;7.03;3.58;;;;;;;;;;5066144;28;20119;-58
2021/10/20 06:40:38;;;;;;;8.75;3.63;;;;;;;;;;5071368;28;20497;-59
2021/10/20 06:43:04;;;;;;;7.75;3.60;;;;;;;;;;5069043;28;20028;-59
2021/10/20 06:45:29;;;;;;;6.03;3.47;;;;;;;;;;5067589;28;20027;-59
2021/10/20 06:47:55;;;;;;;6.88;3.25;;;;;;;;;;5066328;28;20031;-59
2021/10/20 06:50:20;;;;;;;6.68;3.35;;;;;;;;;;5070093;28;20384;-59
2021/10/20 06:52:46;;;;;;;7.97;3.30;;;;;;;;;;5071106;28;20555;-59
2021/10/20 06:55:12;;;;;;;8.90;3.92;;;;;;;;;;5071173;28;20355;-59
2021/10/20 06:57:39;;;;;;;8.05;4.22;;;;;;;;;;5066066;28;20050;-59
2021/10/20 07:00:05;;;;;;;8.40;4.50;;;;;;;;;;5067218;28;20169;-59
2021/10/20 07:02:31;;;;;;;10.90;4.93;;;;;;;;;;5068584;28;20128;-59
2021/10/20 07:04:56;;;;;;;10.73;5.72;;;;;;;;;;5068136;28;20166;-59
2021/10/20 07:07:22;;;;;;;10.45;5.63;;;;;;;;;;5067208;28;20016;-59
2021/10/20 07:09:47;;;;;;;18.80;8.82;;;;;;;;;;5068750;28;20044;-59
2021/10/20 07:12:13;;;;;;;37.53;17.23;;;;;;;;;;5066816;28;20048;-59
2021/10/20 07:14:39;;;;;;;31.42;14.05;;;;;;;;;;5069938;28;20036;-58
2021/10/20 07:17:09;;;;;;;33.97;15.48;;;;;;;;;;5066188;28;20028;-59
2021/10/20 07:19:35;;;;;;;;;;;;;;;;;;5064858;28;20032;-59
2021/10/20 07:22:00;;;;;;;26.38;13.25;;;;;;;;;;5067113;28;19919;-59
2021/10/20 07:24:27;;;;;;;20.58;10.80;;;;;;;;;;5066550;28;20024;-59
2021/10/20 07:26:52;;;;;;;20.67;9.77;;;;;;;;;;5069153;28;20529;-59
2021/10/20 07:29:18;;;;;;;18.42;8.77;;;;;;;;;;5067558;28;20610;-59
2021/10/20 07:31:43;;;;;;;17.60;8.93;;;;;;;;;;5063437;28;20052;-59
2021/10/20 07:34:09;;;;;;;13.95;7.72;;;;;;;;;;5067490;28;20149;-59
2021/10/20 07:36:34;;;;;;;15.65;7.72;;;;;;;;;;5071182;28;20094;-58
2021/10/20 07:39:00;;;;;;;15.00;7.75;;;;;;;;;;5068238;28;20028;-58
2021/10/20 07:41:25;;;;;;;15.63;8.50;;;;;;;;;;5070064;28;20031;-59
2021/10/20 07:43:51;;;;;;;14.57;7.70;;;;;;;;;;5066604;28;20491;-59
2021/10/20 07:46:16;;;;;;;14.95;8.35;;;;;;;;;;5068486;28;20028;-58
2021/10/20 07:48:42;;;;;;;22.15;9.68;;;;;;;;;;5071800;28;20023;-59
2021/10/20 07:51:07;;;;;;;20.50;10.52;;;;;;;;;;5068907;28;20028;-59
2021/10/20 07:53:33;;;;;;;20.02;10.52;;;;;;;;;;5066536;28;20028;-60
2021/10/20 07:55:58;;;;;;;20.88;9.93;;;;;;;;;;5066366;28;20028;-59
2021/10/20 07:58:24;;;;;;;16.25;8.77;;;;;;;;;;5067171;28;20028;-60
2021/10/20 08:00:49;;;;;;;19.45;9.85;;;;;;;;;;5066450;28;20021;-59
2021/10/20 08:03:14;;;;;;;13.88;7.18;;;;;;;;;;5068714;28;20024;-60
2021/10/20 08:05:40;;;;;;;14.65;7.35;;;;;;;;;;5066372;28;20024;-60
2021/10/20 08:08:09;;;;;;;16.90;8.00;;;;;;;;;;5067460;28;20368;-60
2021/10/20 08:10:35;;;;;;;16.30;7.80;;;;;;;;;;5067299;28;20028;-60
2021/10/20 08:13:00;;;;;;;15.63;8.23;;;;;;;;;;5068426;28;20051;-60
2021/10/20 08:15:28;;;;;;;12.93;7.15;;;;;;;;;;5066528;28;20641;-60
2021/10/20 08:17:56;;;;;;;11.82;6.60;;;;;;;;;;5065899;28;20253;-59
2021/10/20 08:20:23;;;;;;;10.18;6.40;;;;;;;;;;5065966;28;20206;-59
2021/10/20 08:22:49;;;;;;;11.73;5.60;;;;;;;;;;5065465;28;20481;-60
2021/10/20 08:25:16;;;;;;;9.75;5.00;;;;;;;;;;5069484;28;20068;-60
2021/10/20 08:27:42;;;;;;;10.27;5.72;;;;;;;;;;5066025;28;20469;-61
2021/10/20 08:30:16;;;;;;;10.35;5.85;;;;;;;;;;5065628;28;20059;-60
2021/10/20 08:32:41;;;;;;;7.60;3.63;;;;;;;;;;5065655;28;20047;-60
2021/10/20 08:35:07;;;;;;;8.85;4.28;;;;;;;;;;5066621;28;20032;-60
2021/10/20 08:37:33;;;;;;;6.13;3.72;;;;;;;;;;5065931;28;20077;-60
2021/10/20 08:39:58;;;;;;;6.60;3.20;;;;;;;;;;5066413;28;20075;-60
2021/10/20 08:42:24;;;;;;;5.72;3.47;;;;;;;;;;5065541;28;20044;-59
2021/10/20 08:44:49;;;;;;;5.00;3.28;;;;;;;;;;5069857;28;20190;-60
2021/10/20 08:47:15;;;;;;;5.30;3.22;;;;;;;;;;5072975;28;20016;-59
2021/10/20 08:49:43;;;;;;;5.55;3.10;;;;;;;;;;5067714;28;20085;-59
2021/10/20 08:52:09;;;;;;;3.70;2.92;;;;;;;;;;5069100;28;20080;-59
2021/10/20 08:54:35;;;;;;;3.72;2.83;;;;;;;;;;5067746;28;20031;-59
2021/10/20 08:57:01;;;;;;;3.47;2.60;;;;;;;;;;5060496;28;20037;-59
2021/10/20 08:59:26;;;;;;;7.18;3.13;;;;;;;;;;5066634;28;20028;-59
2021/10/20 09:01:52;;;;;;;11.15;5.50;;;;;;;;;;5070855;28;20111;-59
2021/10/20 09:04:20;;;;;;;10.00;5.80;;;;;;;;;;5069556;28;20414;-59
2021/10/20 09:06:46;;;;;;;15.45;7.35;;;;;;;;;;5069119;28;20025;-59
2021/10/20 09:09:13;;;;;;;12.80;6.93;;;;;;;;;;5071817;28;20422;-59
2021/10/20 09:11:40;;;;;;;13.82;7.10;;;;;;;;;;5070877;28;20028;-59
2021/10/20 09:14:15;;;;;;;11.52;5.55;;;;;;;;;;5074920;28;20107;-59
2021/10/20 09:16:43;;;;;;;7.88;4.32;;;;;;;;;;5068944;28;20487;-59
2021/10/20 09:19:19;;;;;;;7.95;4.03;;;;;;;;;;5070019;28;20134;-60
2021/10/20 09:22:02;;;;;;;4.90;3.08;;;;;;;;;;5069499;28;20028;-59
2021/10/20 09:24:46;;;;;;;6.90;4.60;;;;;;;;;;5069058;28;20048;-59
2021/10/20 09:27:22;;;;;;;9.77;5.43;;;;;;;;;;5070420;28;20024;-59
2021/10/20 09:29:48;;;;;;;10.65;5.13;;;;;;;;;;5071874;28;20032;-60
2021/10/20 09:32:13;;;;;;;13.82;6.88;;;;;;;;;;5068096;28;20035;-59
2021/10/20 09:34:40;;;;;;;15.23;5.32;;;;;;;;;;5071071;28;20493;-60
2021/10/20 09:37:07;;;;;;;8.38;4.53;;;;;;;;;;5066123;28;20487;-59
2021/10/20 09:39:35;;;;;;;8.52;3.70;;;;;;;;;;5071573;28;21308;-58
2021/10/20 09:42:06;;;;;;;6.60;4.18;;;;;;;;;;5066474;28;20033;-59
2021/10/20 09:44:51;;;;;;;7.88;3.90;;;;;;;;;;5070681;28;20085;-59
2021/10/20 09:47:18;;;;;;;5.88;3.13;;;;;;;;;;5069738;28;20035;-59
2021/10/20 09:49:54;;;;;;;5.68;2.90;;;;;;;;;;5072071;28;20025;-59
2021/10/20 09:52:22;;;;;;;4.70;3.35;;;;;;;;;;5072078;28;20035;-59
2021/10/20 09:54:47;;;;;;;5.63;3.35;;;;;;;;;;5068326;28;20025;-58
2021/10/20 09:57:14;;;;;;;5.15;3.22;;;;;;;;;;5068156;28;20456;-59
2021/10/20 09:59:41;;;;;;;5.55;3.97;;;;;;;;;;5068446;28;20451;-59
2021/10/20 10:02:08;;;;;;;5.47;3.83;;;;;;;;;;5071866;28;21175;-59
2021/10/20 10:04:36;;;;;;;5.40;3.45;;;;;;;;;;5069831;28;20124;-59
2021/10/20 10:07:03;;;;;;;6.00;3.55;;;;;;;;;;5067936;28;20024;-59
2021/10/20 10:09:29;;;;;;;4.90;3.10;;;;;;;;;;5068077;28;20504;-59
2021/10/20 10:12:00;;;;;;;3.97;2.90;;;;;;;;;;5074565;28;20104;-59
2021/10/20 10:14:34;;;;;;;4.57;2.95;;;;;;;;;;5059591;28;20398;-59
2021/10/20 10:17:01;;;;;;;5.47;3.65;;;;;;;;;;5068784;28;20337;-59
2021/10/20 10:19:30;;;;;;;5.22;3.00;;;;;;;;;;5067499;28;20044;-59
2021/10/20 10:21:55;;;;;;;5.75;3.20;;;;;;;;;;5069326;28;20039;-58
2021/10/20 10:24:20;;;;;;;10.57;3.47;;;;;;;;;;5066047;28;20036;-58
2021/10/20 10:27:09;;;;;;;3.63;2.88;;;;;;;;;;5071974;28;21002;-58
2021/10/20 10:29:53;;;;;;;4.55;3.33;;;;;;;;;;5072973;28;20517;-57
2021/10/20 10:32:22;;;;;;;5.07;3.03;;;;;;;;;;5068793;28;20090;-57
2021/10/20 10:34:49;;;;;;;3.80;3.10;;;;;;;;;;5068062;28;20035;-58
2021/10/20 10:37:29;;;;;;;5.70;3.40;;;;;;;;;;5068285;28;20020;-58
2021/10/20 10:39:55;;;;;;;5.85;3.08;;;;;;;;;;5072207;28;20267;-58
2021/10/20 10:42:36;;;;;;;6.13;3.20;;;;;;;;;;5068946;28;20482;-58
2021/10/20 10:45:11;;;;;;;3.88;2.90;;;;;;;;;;5066470;28;20031;-58
2021/10/20 10:47:57;;;;;;;4.15;2.80;;;;;;;;;;5065259;28;20441;-58
2021/10/20 10:50:39;;;;;;;4.45;2.88;;;;;;;;;;5068982;28;20036;-58
2021/10/20 10:53:05;;;;;;;4.93;2.70;;;;;;;;;;5070230;28;20048;-58
2021/10/20 10:55:31;;;;;;;5.38;4.03;;;;;;;;;;5071179;28;22600;-58
2021/10/20 10:57:58;;;;;;;3.42;2.85;;;;;;;;;;5069535;28;20127;-58
2021/10/20 11:00:32;;;;;;;5.03;3.05;;;;;;;;;;5069226;28;20037;-58
2021/10/20 11:02:59;;;;;;;7.15;2.75;;;;;;;;;;5069679;28;20020;-58
2021/10/20 11:05:27;;;;;;;5.97;3.65;;;;;;;;;;5069583;28;20109;-58
2021/10/20 11:08:02;;;;;;;3.20;2.67;;;;;;;;;;5065972;28;20028;-58
2021/10/20 11:10:28;;;;;;;10.38;3.38;;;;;;;;;;5071172;28;20039;-58
2021/10/20 11:12:57;;;;;;;4.95;2.95;;;;;;;;;;5072472;28;20031;-59
2021/10/20 11:15:25;;;;;;;4.32;3.03;;;;;;;;;;5065232;28;20037;-58
2021/10/20 11:17:51;;;;;;;4.03;3.08;;;;;;;;;;5071835;28;20399;-58
2021/10/20 11:20:19;;;;;;;4.70;2.90;;;;;;;;;;5067483;28;20028;-57
2021/10/20 11:22:49;;;;;;;5.78;2.95;;;;;;;;;;5069092;28;20028;-59
2021/10/20 11:25:16;;;;;;;4.30;2.65;;;;;;;;;;5068418;28;20033;-58
2021/10/20 11:27:47;;;;;;;4.68;3.00;;;;;;;;;;5066329;28;20051;-58
2021/10/20 11:30:13;;;;;;;4.95;2.95;;;;;;;;;;5067287;28;20463;-58
2021/10/20 11:32:42;;;;;;;4.75;3.00;;;;;;;;;;5067237;28;20039;-58
2021/10/20 11:35:17;;;;;;;5.45;3.15;;;;;;;;;;5065318;28;20424;-58
2021/10/20 11:37:43;;;;;;;5.97;2.65;;;;;;;;;;5063067;28;20107;-58
2021/10/20 11:40:08;;;;;;;4.47;3.05;;;;;;;;;;5067159;28;20123;-59
2021/10/20 11:42:41;;;;;;;5.07;2.88;;;;;;;;;;5065910;28;20287;-59
2021/10/20 11:45:06;;;;;;;5.60;2.70;;;;;;;;;;5068385;28;20027;-58
2021/10/20 11:47:38;;;;;;;4.38;2.72;;;;;;;;;;5065837;28;20277;-58
2021/10/20 11:50:04;;;;;;;5.07;2.75;;;;;;;;;;5067837;28;20029;-58
2021/10/20 11:52:33;;;;;;;3.97;2.80;;;;;;;;;;5067900;28;20020;-58
2021/10/20 11:54:59;;;;;;;3.58;2.90;;;;;;;;;;5068229;28;20020;-58
2021/10/20 11:57:25;;;;;;;7.20;3.00;;;;;;;;;;5065964;28;20451;-59
2021/10/20 11:59:52;;;;;;;4.57;3.03;;;;;;;;;;5064968;28;20456;-59
2021/10/20 12:02:18;;;;;;;8.88;2.90;;;;;;;;;;5068419;28;20026;-59
2021/10/20 12:04:45;;;;;;;6.07;3.10;;;;;;;;;;5064769;28;20061;-59
2021/10/20 12:07:13;;;;;;;3.33;2.67;;;;;;;;;;5063880;28;20021;-58
2021/10/20 12:09:43;;;;;;;8.10;2.78;;;;;;;;;;5065917;28;20159;-59
2021/10/20 12:12:11;;;;;;;5.50;3.03;;;;;;;;;;5064252;28;20032;-59
2021/10/20 12:14:42;;;;;;;4.70;2.88;;;;;;;;;;5066323;28;20418;-58
2021/10/20 12:17:09;;;;;;;4.60;2.85;;;;;;;;;;5081073;28;20021;-58
2021/10/20 12:19:37;;;;;;;4.13;2.95;;;;;;;;;;5068854;28;20585;-58
2021/10/20 12:22:06;;;;;;;4.90;2.63;;;;;;;;;;5072970;28;20032;-58
2021/10/20 12:24:48;;;;;;;5.57;3.00;;;;;;;;;;5072267;28;20028;-57
2021/10/20 12:27:15;;;;;;;4.70;3.13;;;;;;;;;;5067446;28;20147;-59
2021/10/20 12:29:45;;;;;;;6.60;3.50;;;;;;;;;;5070191;28;20063;-58
2021/10/20 12:32:24;;;;;;;6.13;3.50;;;;;;;;;;5073073;28;20047;-58
2021/10/20 12:35:03;;;;;;;6.18;3.30;;;;;;;;;;5068331;28;20043;-58
2021/10/20 12:37:49;;;;;;;4.82;3.55;;;;;;;;;;5067691;28;20064;-58
2021/10/20 12:40:19;;;;;;;4.05;3.05;;;;;;;;;;5069750;28;20040;-58
2021/10/20 12:42:46;;;;;;;8.52;3.50;;;;;;;;;;5069704;28;20386;-58
2021/10/20 12:45:13;;;;;;;7.32;3.47;;;;;;;;;;5066281;28;20032;-58
2021/10/20 12:47:44;;;;;;;5.70;3.22;;;;;;;;;;5067446;28;20025;-59
2021/10/20 12:50:12;;;;;;;13.98;3.50;;;;;;;;;;5069863;28;20052;-59
2021/10/20 12:52:39;;;;;;;5.97;3.30;;;;;;;;;;5068910;28;20115;-58
2021/10/20 12:55:08;;;;;;;4.68;3.38;;;;;;;;;;5069146;28;20031;-58
2021/10/20 12:57:36;;;;;;;3.95;3.15;;;;;;;;;;5066246;28;20032;-59
2021/10/20 13:00:26;;;;;;;4.90;3.20;;;;;;;;;;5068624;28;20040;-58
2021/10/20 13:02:52;;;;;;;8.38;3.28;;;;;;;;;;5071574;28;20038;-58
2021/10/20 13:05:18;;;;;;;7.65;3.25;;;;;;;;;;5068410;28;20068;-58
2021/10/20 13:07:44;;;;;;;4.50;3.10;;;;;;;;;;5067434;28;20105;-59
2021/10/20 13:10:15;;;;;;;14.23;4.28;;;;;;;;;;5073019;28;20020;-58
2021/10/20 13:12:43;;;;;;;3.88;3.05;;;;;;;;;;5071089;28;20025;-58
2021/10/20 13:15:11;;;;;;;10.23;3.72;;;;;;;;;;5071764;28;20024;-58
2021/10/20 13:17:40;;;;;;;6.00;3.65;;;;;;;;;;5070920;28;20041;-58
2021/10/20 13:20:11;;;;;;;4.90;2.90;;;;;;;;;;5074061;28;20035;-58
2021/10/20 13:22:38;;;;;;;5.00;3.38;;;;;;;;;;5070028;28;20463;-58
2021/10/20 13:25:05;;;;;;;7.47;3.33;;;;;;;;;;5070093;28;20375;-58
2021/10/20 13:27:30;;;;;;;4.45;3.33;;;;;;;;;;5067846;28;20357;-58
2021/10/20 13:29:56;;;;;;;5.72;3.63;;;;;;;;;;5067891;28;20122;-58
2021/10/20 13:32:22;;;;;;;5.82;3.75;;;;;;;;;;5068744;28;20100;-57
2021/10/20 13:34:47;;;;;;;6.00;4.05;;;;;;;;;;5069409;28;20552;-59
2021/10/20 13:37:13;;;;;;;8.63;4.10;;;;;;;;;;5068669;28;20171;-58
2021/10/20 13:39:38;;;;;;;5.22;3.92;;;;;;;;;;5069810;28;20028;-59
2021/10/20 13:42:04;;;;;;;8.75;4.53;;;;;;;;;;5075879;28;20108;-59
2021/10/20 13:44:30;;;;;;;7.38;4.38;;;;;;;;;;5069535;28;20036;-59
2021/10/20 13:46:55;;;;;;;7.65;3.28;;;;;;;;;;5069336;28;20364;-59
2021/10/20 13:49:21;;;;;;;4.07;3.67;;;;;;;;;;5070023;28;20034;-60
2021/10/20 13:51:47;;;;;;;6.88;3.53;;;;;;;;;;5069871;28;20168;-60
2021/10/20 13:54:13;;;;;;;5.03;3.83;;;;;;;;;;5070668;28;20074;-60
2021/10/20 13:56:38;;;;;;;6.65;4.13;;;;;;;;;;5067131;28;20029;-60
2021/10/20 13:59:04;;;;;;;9.18;6.20;;;;;;;;;;5071642;28;20482;-60
2021/10/20 14:01:30;;;;;;;4.75;3.40;;;;;;;;;;5068975;28;20479;-60
2021/10/20 14:03:56;;;;;;;6.28;3.88;;;;;;;;;;5070199;28;20082;-60
2021/10/20 14:06:22;;;;;;;5.63;3.58;;;;;;;;;;5068877;28;20400;-60
2021/10/20 14:08:48;;;;;;;4.47;3.38;;;;;;;;;;5070151;28;20577;-60
2021/10/20 14:11:13;;;;;;;7.43;3.90;;;;;;;;;;5068321;28;20457;-60
2021/10/20 14:13:38;;;;;;;5.28;3.33;;;;;;;;;;5067590;28;20550;-60
2021/10/20 14:16:04;;;;;;;8.07;4.68;;;;;;;;;;5070710;28;20399;-60
2021/10/20 14:18:30;;;;;;;6.13;4.00;;;;;;;;;;5067787;28;20042;-60
2021/10/20 14:20:56;;;;;;;13.63;4.90;;;;;;;;;;5075531;28;20028;-60
2021/10/20 14:23:22;;;;;;;4.40;3.40;;;;;;;;;;5066713;28;20029;-60
2021/10/20 14:25:48;;;;;;;9.10;3.83;;;;;;;;;;5065453;28;20036;-60
2021/10/20 14:28:14;;;;;;;4.15;3.40;;;;;;;;;;5066855;28;20035;-60
2021/10/20 14:30:39;;;;;;;5.00;3.20;;;;;;;;;;5069029;28;20028;-60
2021/10/20 14:33:05;;;;;;;6.20;3.38;;;;;;;;;;5067951;28;20039;-60
2021/10/20 14:35:31;;;;;;;5.18;3.45;;;;;;;;;;5067279;28;20517;-60
2021/10/20 14:37:56;;;;;;;7.78;4.05;;;;;;;;;;5067627;28;20033;-60